createdAt,value
2022-11-26T00:02:29.242Z,3.30
2022-11-26T00:04:58.733Z,3.40
2022-11-26T00:07:29.983Z,3.50
2022-11-26T00:09:59.532Z,3.60
2022-11-26T00:12:32.190Z,3.60
2022-11-26T00:15:02.646Z,3.60
2022-11-26T00:17:29.637Z,3.60
2022-11-26T00:19:56.630Z,3.60
2022-11-26T00:22:27.315Z,3.60
2022-11-26T00:24:55.149Z,3.60
2022-11-26T00:27:25.954Z,3.60
2022-11-26T00:29:54.051Z,3.50
2022-11-26T00:32:25.564Z,3.50
2022-11-26T00:34:53.664Z,3.40
2022-11-26T00:37:33.788Z,3.40
2022-11-26T00:40:01.920Z,3.50
2022-11-26T00:42:28.954Z,3.50
2022-11-26T00:44:55.949Z,3.60
2022-11-26T00:47:23.016Z,3.60
2022-11-26T00:49:50.033Z,3.70
2022-11-26T00:52:34.058Z,3.90
2022-11-26T00:55:11.097Z,3.90
2022-11-26T00:57:38.134Z,4.00
2022-11-26T01:00:19.173Z,4.00
2022-11-26T01:02:47.058Z,4.00
2022-11-26T01:05:15.565Z,4.10
2022-11-26T01:07:43.705Z,4.20
2022-11-26T01:10:32.322Z,4.30
2022-11-26T01:12:59.413Z,4.30
2022-11-26T01:15:28.083Z,4.30
2022-11-26T01:17:55.618Z,4.30
2022-11-26T01:20:30.401Z,4.30
2022-11-26T01:22:59.187Z,4.10
2022-11-26T01:25:27.665Z,4.10
2022-11-26T01:27:54.734Z,4.00
2022-11-26T01:30:31.223Z,3.90
2022-11-26T01:33:00.991Z,3.80
2022-11-26T01:35:29.101Z,3.70
2022-11-26T01:37:56.538Z,3.60
2022-11-26T01:40:26.434Z,3.60
2022-11-26T01:43:31.297Z,3.50
2022-11-26T01:45:58.368Z,3.50
2022-11-26T01:48:34.579Z,3.40
2022-11-26T01:51:06.887Z,3.40
2022-11-26T01:53:38.369Z,3.40
2022-11-26T01:56:25.965Z,3.40
2022-11-26T01:59:24.837Z,3.50
2022-11-26T02:01:58.086Z,3.60
2022-11-26T02:04:33.747Z,3.70
2022-11-26T02:07:01.135Z,3.80
2022-11-26T02:09:29.010Z,3.80
2022-11-26T02:11:56.583Z,3.80
2022-11-26T02:14:33.176Z,3.90
2022-11-26T02:17:27.173Z,3.90
2022-11-26T02:20:24.939Z,3.90
2022-11-26T02:23:18.557Z,4.00
2022-11-26T02:25:52.158Z,4.20
2022-11-26T02:29:00.746Z,4.20
2022-11-26T02:31:46.469Z,4.30
2022-11-26T02:34:39.975Z,4.40
2022-11-26T02:37:31.714Z,4.50
2022-11-26T02:39:58.818Z,4.50
2022-11-26T02:42:33.128Z,4.60
2022-11-26T02:45:09.869Z,4.60
2022-11-26T02:47:40.683Z,4.50
2022-11-26T02:50:16.360Z,4.50
2022-11-26T02:52:45.148Z,4.50
2022-11-26T02:55:15.553Z,4.50
2022-11-26T02:57:48.825Z,4.50
2022-11-26T03:00:17.232Z,4.50
2022-11-26T03:03:01.720Z,4.50
2022-11-26T03:05:33.309Z,4.40
2022-11-26T03:08:01.357Z,4.50
2022-11-26T03:10:30.767Z,4.40
2022-11-26T03:12:58.031Z,4.40
2022-11-26T03:15:25.514Z,4.40
2022-11-26T03:17:52.551Z,4.40
2022-11-26T03:20:19.647Z,4.40
2022-11-26T03:22:46.638Z,4.30
2022-11-26T03:25:14.049Z,4.30
2022-11-26T03:27:41.169Z,4.30
2022-11-26T03:30:09.099Z,4.20
2022-11-26T03:32:37.220Z,4.10
2022-11-26T03:35:05.611Z,4.00
2022-11-26T03:37:33.789Z,3.90
2022-11-26T03:40:00.945Z,3.80
2022-11-26T03:42:28.031Z,3.80
2022-11-26T03:44:55.313Z,3.80
2022-11-26T03:47:22.494Z,3.80
2022-11-26T03:49:49.597Z,3.80
2022-11-26T03:52:16.606Z,3.80
2022-11-26T03:54:43.694Z,3.80
2022-11-26T03:57:10.884Z,3.80
2022-11-26T03:59:38.092Z,3.80
2022-11-26T04:02:06.249Z,3.80
2022-11-26T04:04:33.409Z,3.80
2022-11-26T04:07:01.486Z,3.80
2022-11-26T04:09:28.517Z,3.80
2022-11-26T04:11:55.602Z,3.90
2022-11-26T04:14:22.645Z,3.90
2022-11-26T04:16:49.762Z,3.90
2022-11-26T04:19:16.917Z,4.00
2022-11-26T04:21:43.984Z,4.00
2022-11-26T04:24:10.977Z,4.10
2022-11-26T04:26:38.093Z,4.00
2022-11-26T04:29:05.277Z,4.00
2022-11-26T04:31:33.665Z,3.80
2022-11-26T04:34:00.978Z,3.80
2022-11-26T04:36:28.021Z,3.70
2022-11-26T04:38:55.082Z,3.50
2022-11-26T04:41:23.425Z,3.40
2022-11-26T04:43:50.496Z,3.20
2022-11-26T04:46:17.548Z,3.20
2022-11-26T04:48:44.877Z,3.00
2022-11-26T04:51:11.884Z,2.90
2022-11-26T04:53:38.931Z,2.80
2022-11-26T04:56:06.310Z,2.80
2022-11-26T04:58:33.357Z,2.80
2022-11-26T05:01:00.595Z,2.80
2022-11-26T05:03:27.717Z,2.80
2022-11-26T05:05:54.887Z,2.80
2022-11-26T05:08:22.021Z,2.80
2022-11-26T05:10:54.489Z,2.80
2022-11-26T05:13:22.103Z,2.70
2022-11-26T05:15:49.115Z,2.70
2022-11-26T05:18:16.485Z,2.60
2022-11-26T05:20:43.624Z,2.60
2022-11-26T05:23:10.852Z,2.50
2022-11-26T05:25:37.929Z,2.50
2022-11-26T05:28:05.229Z,2.50
2022-11-26T05:30:33.134Z,2.60
2022-11-26T05:33:00.323Z,2.60
2022-11-26T05:35:27.758Z,2.70
2022-11-26T05:37:54.792Z,2.60
2022-11-26T05:40:21.987Z,2.60
2022-11-26T05:42:49.014Z,2.60
2022-11-26T05:45:16.647Z,2.60
2022-11-26T05:47:43.914Z,2.60
2022-11-26T05:50:11.477Z,2.40
2022-11-26T05:52:38.631Z,2.40
2022-11-26T05:55:06.692Z,2.30
2022-11-26T05:57:33.747Z,2.30
2022-11-26T06:00:00.748Z,2.30
2022-11-26T06:02:27.867Z,2.30
2022-11-26T06:04:54.939Z,2.20
2022-11-26T06:07:22.021Z,2.20
2022-11-26T06:09:49.114Z,2.20
2022-11-26T06:12:16.101Z,2.10
2022-11-26T06:14:43.681Z,2.10
2022-11-26T06:17:11.855Z,2.10
2022-11-26T06:19:39.400Z,2.00
2022-11-26T06:22:06.922Z,2.00
2022-11-26T06:24:34.189Z,2.00
2022-11-26T06:27:01.614Z,2.00
2022-11-26T06:29:28.856Z,2.10
2022-11-26T06:31:56.127Z,2.00
2022-11-26T06:34:23.428Z,2.00
2022-11-26T06:36:50.621Z,2.00
2022-11-26T06:39:17.706Z,2.00
2022-11-26T06:41:44.818Z,2.00
2022-11-26T06:44:12.005Z,2.10
2022-11-26T06:46:39.110Z,2.10
2022-11-26T06:49:07.041Z,2.10
2022-11-26T06:51:34.619Z,2.10
2022-11-26T06:54:02.167Z,2.20
2022-11-26T06:56:29.201Z,2.20
2022-11-26T06:58:56.451Z,2.30
2022-11-26T07:01:26.324Z,2.30
2022-11-26T07:03:55.382Z,2.40
2022-11-26T07:06:26.107Z,2.40
2022-11-26T07:08:56.088Z,2.40
2022-11-26T07:11:26.075Z,2.40
2022-11-26T07:13:53.604Z,2.40
2022-11-26T07:16:23.619Z,2.30
2022-11-26T07:19:02.430Z,2.30
2022-11-26T07:21:31.248Z,2.20
2022-11-26T07:23:59.345Z,2.20
2022-11-26T07:26:26.437Z,2.10
2022-11-26T07:28:53.905Z,2.10
2022-11-26T07:31:23.091Z,2.20
2022-11-26T07:33:51.653Z,2.20
2022-11-26T07:36:25.734Z,2.20
2022-11-26T07:38:58.555Z,2.20
2022-11-26T07:41:26.773Z,2.20
2022-11-26T07:43:54.195Z,2.30
2022-11-26T07:46:25.171Z,2.30
2022-11-26T07:48:52.584Z,2.40
2022-11-26T07:51:24.186Z,2.40
2022-11-26T07:53:52.482Z,2.50
2022-11-26T07:56:19.987Z,2.60
2022-11-26T07:58:47.583Z,2.60
2022-11-26T08:01:24.324Z,2.70
2022-11-26T08:03:52.038Z,2.80
2022-11-26T08:06:25.880Z,2.80
2022-11-26T08:08:53.241Z,2.90
2022-11-26T08:11:21.725Z,3.00
2022-11-26T08:13:53.117Z,3.10
2022-11-26T08:16:20.337Z,3.20
2022-11-26T08:18:47.392Z,3.40
2022-11-26T08:21:14.461Z,3.50
2022-11-26T08:23:41.509Z,3.60
2022-11-26T08:26:23.820Z,3.60
2022-11-26T08:28:53.493Z,3.70
2022-11-26T08:31:21.269Z,3.80
2022-11-26T08:33:48.448Z,3.80
2022-11-26T08:36:15.588Z,3.80
2022-11-26T08:38:42.680Z,3.90
2022-11-26T08:41:13.631Z,3.90
2022-11-26T08:46:29.046Z,3.90
2022-11-26T08:48:58.045Z,3.90
2022-11-26T08:51:25.558Z,4.00
2022-11-26T08:53:52.683Z,4.00
2022-11-26T08:56:19.773Z,4.10
2022-11-26T08:58:48.961Z,4.20
2022-11-26T09:01:26.515Z,4.30
2022-11-26T09:03:57.493Z,4.40
2022-11-26T09:06:27.777Z,4.40
2022-11-26T09:09:13.921Z,4.50
2022-11-26T09:11:58.560Z,4.70
2022-11-26T09:14:29.026Z,4.80
2022-11-26T09:16:57.671Z,4.80
2022-11-26T09:19:25.970Z,4.90
2022-11-26T09:21:53.097Z,5.00
2022-11-26T09:24:21.424Z,5.10
2022-11-26T09:26:49.009Z,5.20
2022-11-26T09:29:20.123Z,5.30
2022-11-26T09:32:21.945Z,5.30
2022-11-26T09:34:37.329Z,5.30
2022-11-26T09:37:04.600Z,5.30
2022-11-26T09:39:32.774Z,5.30
2022-11-26T09:42:25.340Z,5.30
2022-11-26T09:45:32.846Z,5.40
2022-11-26T09:48:03.015Z,5.50
2022-11-26T09:50:33.445Z,5.60
2022-11-26T09:53:11.673Z,5.70
2022-11-26T09:55:42.562Z,5.70
2022-11-26T09:58:28.234Z,5.90
2022-11-26T10:00:58.732Z,6.00
2022-11-26T10:03:30.386Z,6.10
2022-11-26T10:06:35.806Z,6.10
2022-11-26T10:09:21.711Z,6.20
2022-11-26T10:12:25.065Z,6.30
2022-11-26T10:15:16.926Z,6.40
2022-11-26T10:18:13.144Z,6.40
2022-11-26T10:21:06.453Z,6.50
2022-11-26T10:23:45.553Z,6.70
2022-11-26T10:26:35.454Z,6.90
2022-11-26T10:29:39.610Z,7.00
2022-11-26T10:32:23.270Z,7.00
2022-11-26T10:34:57.518Z,7.10
2022-11-26T10:37:27.634Z,7.10
2022-11-26T10:40:07.442Z,7.10
2022-11-26T10:42:57.376Z,7.00
2022-11-26T10:45:28.581Z,7.20
2022-11-26T10:48:27.093Z,7.40
2022-11-26T10:51:13.821Z,7.40
2022-11-26T10:53:58.176Z,7.20
2022-11-26T10:56:41.778Z,7.20
2022-11-26T10:59:26.087Z,7.30
2022-11-26T11:01:57.570Z,7.60
2022-11-26T11:04:32.794Z,8.20
2022-11-26T11:07:00.027Z,8.60
2022-11-26T11:09:35.850Z,8.90
2022-11-26T11:12:12.248Z,9.10
2022-11-26T11:14:43.537Z,9.40
2022-11-26T11:17:29.705Z,9.40
2022-11-26T11:19:59.956Z,9.20
2022-11-26T11:22:28.222Z,9.10
2022-11-26T11:24:59.339Z,9.00
2022-11-26T11:27:41.703Z,8.50
2022-11-26T11:30:29.557Z,8.10
2022-11-26T11:32:58.542Z,7.70
2022-11-26T11:35:31.063Z,7.50
2022-11-26T11:37:59.519Z,7.50
2022-11-26T11:40:30.588Z,7.60
2022-11-26T11:43:04.456Z,7.50
2022-11-26T11:46:02.065Z,7.40
2022-11-26T11:48:49.973Z,7.30
2022-11-26T11:51:35.093Z,7.10
2022-11-26T11:54:21.512Z,7.20
2022-11-26T11:57:05.857Z,7.30
2022-11-26T12:00:10.863Z,7.20
2022-11-26T12:02:43.414Z,7.20
2022-11-26T12:06:04.755Z,7.00
2022-11-26T12:08:58.126Z,7.00
2022-11-26T12:11:52.285Z,7.10
2022-11-26T12:14:43.708Z,7.20
2022-11-26T12:17:17.093Z,7.10
2022-11-26T12:20:06.373Z,7.10
2022-11-26T12:22:51.265Z,7.10
2022-11-26T12:25:39.990Z,7.20
2022-11-26T12:28:23.391Z,7.20
2022-11-26T12:31:19.082Z,7.20
2022-11-26T12:34:20.106Z,6.90
2022-11-26T12:37:02.991Z,6.80
2022-11-26T12:39:53.869Z,6.90
2022-11-26T12:42:45.345Z,7.00
2022-11-26T12:45:33.466Z,6.80
2022-11-26T12:48:11.829Z,6.80
2022-11-26T12:50:56.285Z,6.90
2022-11-26T12:53:56.126Z,6.90
2022-11-26T12:56:43.581Z,7.00
2022-11-26T12:59:30.774Z,6.90
2022-11-26T13:01:58.673Z,6.90
2022-11-26T13:04:37.610Z,6.90
2022-11-26T13:07:48.792Z,7.00
2022-11-26T13:11:08.837Z,6.80
2022-11-26T13:14:04.360Z,6.80
2022-11-26T13:16:52.821Z,6.60
2022-11-26T13:19:41.998Z,6.40
2022-11-26T13:22:25.068Z,6.40
2022-11-26T13:24:54.747Z,6.30
2022-11-26T13:27:33.562Z,6.30
2022-11-26T13:30:14.518Z,6.20
2022-11-26T13:33:07.205Z,6.20
2022-11-26T13:36:30.229Z,6.20
2022-11-26T13:39:16.465Z,6.10
2022-11-26T13:42:21.017Z,6.10
2022-11-26T13:45:06.240Z,6.10
2022-11-26T13:48:00.498Z,6.00
2022-11-26T13:50:49.873Z,5.90
2022-11-26T13:53:32.309Z,5.90
2022-11-26T13:56:02.984Z,5.90
2022-11-26T13:59:01.761Z,5.90
2022-11-26T14:01:33.110Z,5.90
2022-11-26T14:04:00.660Z,6.00
2022-11-26T14:06:28.203Z,6.10
2022-11-26T14:08:56.425Z,6.20
2022-11-26T14:11:42.056Z,6.30
2022-11-26T14:14:24.571Z,6.10
2022-11-26T14:17:14.669Z,6.20
2022-11-26T14:19:41.659Z,6.10
2022-11-26T14:22:20.431Z,6.10
2022-11-26T14:24:50.556Z,6.10
2022-11-26T14:27:22.879Z,6.10
2022-11-26T14:30:21.155Z,6.10
2022-11-26T14:33:17.396Z,6.10
2022-11-26T14:35:56.273Z,6.10
2022-11-26T14:38:32.585Z,6.10
2022-11-26T14:41:01.377Z,6.10
2022-11-26T14:43:29.579Z,6.00
2022-11-26T14:46:04.704Z,6.00
2022-11-26T14:48:35.753Z,6.00
2022-11-26T14:51:04.811Z,6.00
2022-11-26T14:53:43.300Z,6.00
2022-11-26T14:56:11.093Z,6.10
2022-11-26T14:58:50.577Z,6.10
2022-11-26T15:01:25.532Z,6.10
2022-11-26T15:03:59.712Z,6.10
2022-11-26T15:06:40.726Z,6.10
2022-11-26T15:09:21.769Z,6.20
2022-11-26T15:12:02.742Z,6.20
2022-11-26T15:14:41.749Z,6.20
2022-11-26T15:17:15.172Z,6.20
2022-11-26T15:19:43.089Z,6.20
2022-11-26T15:22:25.578Z,6.20
2022-11-26T15:24:53.876Z,6.20
2022-11-26T15:27:31.000Z,6.20
2022-11-26T15:29:58.093Z,6.10
2022-11-26T15:32:32.200Z,6.10
2022-11-26T15:35:03.908Z,6.20
2022-11-26T15:37:30.951Z,6.10
2022-11-26T15:40:26.876Z,6.10
2022-11-26T15:42:58.104Z,6.00
2022-11-26T15:45:40.887Z,6.00
2022-11-26T15:48:50.381Z,6.00
2022-11-26T15:51:44.356Z,6.00
2022-11-26T15:54:30.840Z,6.00
2022-11-26T15:57:35.732Z,6.00
2022-11-26T16:00:15.350Z,6.00
2022-11-26T16:02:43.192Z,6.00
2022-11-26T16:05:34.895Z,6.00
2022-11-26T16:08:21.878Z,6.00
2022-11-26T16:11:18.330Z,6.00
2022-11-26T16:13:45.427Z,6.00
2022-11-26T16:16:20.490Z,5.90
2022-11-26T16:18:59.873Z,5.90
2022-11-26T16:21:31.422Z,5.90
2022-11-26T16:24:20.000Z,5.90
2022-11-26T16:27:07.224Z,5.80
2022-11-26T16:29:37.793Z,5.80
2022-11-26T16:32:05.001Z,5.80
2022-11-26T16:34:33.070Z,5.80
2022-11-26T16:37:04.081Z,5.90
2022-11-26T16:39:39.127Z,5.90
2022-11-26T16:42:20.363Z,5.80
2022-11-26T16:44:48.208Z,5.80
2022-11-26T16:47:32.175Z,5.70
2022-11-26T16:49:59.270Z,5.70
2022-11-26T16:52:26.301Z,5.60
2022-11-26T16:54:53.351Z,5.60
2022-11-26T16:57:24.224Z,5.50
2022-11-26T17:00:19.894Z,5.50
2022-11-26T17:02:47.361Z,5.60
2022-11-26T17:05:15.096Z,5.60
2022-11-26T17:07:54.988Z,5.50
2022-11-26T17:10:25.925Z,5.50
2022-11-26T17:12:53.115Z,5.50
2022-11-26T17:15:20.252Z,5.60
2022-11-26T17:17:47.328Z,5.60
2022-11-26T17:20:25.562Z,5.60
2022-11-26T17:22:53.149Z,5.50
2022-11-26T17:25:20.872Z,5.50
2022-11-26T17:27:49.022Z,5.60
2022-11-26T17:30:20.319Z,5.70
2022-11-26T17:32:47.493Z,5.70
2022-11-26T17:35:14.984Z,5.70
2022-11-26T17:37:43.387Z,5.60
2022-11-26T17:40:20.374Z,5.60
2022-11-26T17:42:47.629Z,5.70
2022-11-26T17:45:15.221Z,5.80
2022-11-26T17:47:42.864Z,5.80
2022-11-26T17:50:24.623Z,5.80
2022-11-26T17:52:53.288Z,5.90
2022-11-26T17:55:22.121Z,5.90
2022-11-26T17:57:49.294Z,5.80
2022-11-26T18:00:24.743Z,5.80
2022-11-26T18:02:52.406Z,5.70
2022-11-26T18:05:19.809Z,5.60
2022-11-26T18:07:47.130Z,5.50
2022-11-26T18:10:17.173Z,5.50
2022-11-26T18:12:44.933Z,5.60
2022-11-26T18:15:24.528Z,5.60
2022-11-26T18:17:54.829Z,5.60
2022-11-26T18:20:25.997Z,5.60
2022-11-26T18:22:58.821Z,5.60
2022-11-26T18:25:26.751Z,5.60
2022-11-26T18:27:54.617Z,5.70
2022-11-26T18:30:22.050Z,5.60
2022-11-26T18:32:49.222Z,5.60
2022-11-26T18:35:17.221Z,5.70
2022-11-26T18:37:44.710Z,5.60
2022-11-26T18:40:15.444Z,5.50
2022-11-26T18:42:43.051Z,5.50
2022-11-26T18:45:13.782Z,5.50
2022-11-26T18:47:40.893Z,5.50
2022-11-26T18:50:08.946Z,5.40
2022-11-26T18:52:36.121Z,5.40
2022-11-26T18:55:05.501Z,5.40
2022-11-26T18:57:32.740Z,5.40
2022-11-26T18:59:59.729Z,5.20
2022-11-26T19:02:26.855Z,5.20
2022-11-26T19:04:53.894Z,5.10
2022-11-26T19:07:20.970Z,5.10
2022-11-26T19:09:48.965Z,5.00
2022-11-26T19:12:16.049Z,4.90
2022-11-26T19:14:43.115Z,4.90
2022-11-26T19:17:10.310Z,4.90
2022-11-26T19:19:38.698Z,4.90
2022-11-26T19:22:06.126Z,5.00
2022-11-26T19:24:33.165Z,5.00
2022-11-26T19:27:00.196Z,5.00
2022-11-26T19:29:27.203Z,5.00
2022-11-26T19:31:54.347Z,5.00
2022-11-26T19:34:21.417Z,5.10
2022-11-26T19:36:49.030Z,5.10
2022-11-26T19:39:17.040Z,5.10
2022-11-26T19:41:44.605Z,5.10
2022-11-26T19:44:11.697Z,5.10
2022-11-26T19:46:41.388Z,5.20
2022-11-26T19:49:12.577Z,5.20
2022-11-26T19:51:40.751Z,5.20
2022-11-26T19:54:08.220Z,5.20
2022-11-26T19:56:35.822Z,5.20
2022-11-26T19:59:03.927Z,5.20
2022-11-26T20:01:33.309Z,5.20
2022-11-26T20:04:04.496Z,5.30
2022-11-26T20:06:34.019Z,5.30
2022-11-26T20:09:04.275Z,5.30
2022-11-26T20:11:31.361Z,5.40
2022-11-26T20:13:58.959Z,5.40
2022-11-26T20:16:29.991Z,5.30
2022-11-26T20:18:58.865Z,5.30
2022-11-26T20:21:30.993Z,5.30
2022-11-26T20:24:00.657Z,5.30
2022-11-26T20:26:30.085Z,5.40
2022-11-26T20:29:03.506Z,5.40
2022-11-26T20:31:33.583Z,5.50
2022-11-26T20:34:04.424Z,5.40
2022-11-26T20:36:33.445Z,5.40
2022-11-26T20:39:02.905Z,5.50
2022-11-26T20:41:30.762Z,5.50
2022-11-26T20:43:59.646Z,5.50
2022-11-26T20:46:28.555Z,5.50
2022-11-26T20:48:56.591Z,5.50
2022-11-26T20:51:24.987Z,5.50
2022-11-26T20:53:53.599Z,5.50
2022-11-26T20:56:22.690Z,5.50
2022-11-26T20:58:51.552Z,5.50
2022-11-26T21:01:29.343Z,5.50
2022-11-26T21:03:57.490Z,5.50
2022-11-26T21:06:30.341Z,5.50
2022-11-26T21:09:04.160Z,5.40
2022-11-26T21:11:32.628Z,5.40
2022-11-26T21:14:01.660Z,5.30
2022-11-26T21:16:30.191Z,5.30
2022-11-26T21:18:58.419Z,5.40
2022-11-26T21:21:27.425Z,5.40
2022-11-26T21:23:54.953Z,5.40
2022-11-26T21:26:25.249Z,5.40
2022-11-26T21:28:58.405Z,5.40
2022-11-26T21:31:27.834Z,5.30
2022-11-26T21:34:01.552Z,5.30
2022-11-26T21:36:31.416Z,5.30
2022-11-26T21:38:58.755Z,5.20
2022-11-26T21:41:27.457Z,5.20
2022-11-26T21:43:55.259Z,5.10
2022-11-26T21:46:27.293Z,5.00
2022-11-26T21:48:56.492Z,5.00
2022-11-26T21:51:26.905Z,4.80
2022-11-26T21:53:55.384Z,4.70
2022-11-26T21:56:28.573Z,4.60
2022-11-26T21:59:00.850Z,4.50
2022-11-26T22:01:30.118Z,4.40
2022-11-26T22:04:01.461Z,4.20
2022-11-26T22:06:28.937Z,4.00
2022-11-26T22:08:56.201Z,3.80
2022-11-26T22:11:30.190Z,3.60
2022-11-26T22:13:57.573Z,3.50
2022-11-26T22:16:27.144Z,3.30
2022-11-26T22:18:56.518Z,3.10
2022-11-26T22:21:27.769Z,3.00
2022-11-26T22:23:55.065Z,2.90
2022-11-26T22:26:23.385Z,2.80
2022-11-26T22:28:51.451Z,2.70
2022-11-26T22:31:24.467Z,2.70
2022-11-26T22:33:59.692Z,2.70
2022-11-26T22:36:27.770Z,2.70
2022-11-26T22:38:55.149Z,2.60
2022-11-26T22:41:22.717Z,2.50
2022-11-26T22:43:50.018Z,2.50
2022-11-26T22:46:24.376Z,2.40
2022-11-26T22:48:58.600Z,2.30
2022-11-26T22:51:29.249Z,2.30
2022-11-26T22:54:03.793Z,2.30
2022-11-26T22:56:31.860Z,2.20
2022-11-26T22:59:01.178Z,2.10
2022-11-26T23:01:32.433Z,2.10
2022-11-26T23:04:02.328Z,2.10
2022-11-26T23:06:31.362Z,2.00
2022-11-26T23:08:59.901Z,1.90
2022-11-26T23:11:34.829Z,1.90
2022-11-26T23:14:04.920Z,1.90
2022-11-26T23:16:32.227Z,1.90
2022-11-26T23:18:59.625Z,1.80
2022-11-26T23:21:31.656Z,1.80
2022-11-26T23:23:59.178Z,1.70
2022-11-26T23:26:32.853Z,1.60
2022-11-26T23:29:03.049Z,1.60
2022-11-26T23:31:33.664Z,1.50
2022-11-26T23:34:01.493Z,1.50
2022-11-26T23:36:29.953Z,1.50
2022-11-26T23:38:59.532Z,1.50
2022-11-26T23:41:27.112Z,1.40
2022-11-26T23:43:54.512Z,1.40
2022-11-26T23:46:31.254Z,1.30
2022-11-26T23:48:59.107Z,1.30
2022-11-26T23:51:32.199Z,1.20
2022-11-26T23:53:59.593Z,1.20
2022-11-26T23:56:33.747Z,1.20
2022-11-26T23:59:04.096Z,1.20
